createdAt,value
2024-03-02T00:00:23.526Z,29.60
2024-03-02T00:02:51.163Z,30.95
2024-03-02T00:05:23.366Z,29.45
2024-03-02T00:07:58.834Z,29.85
2024-03-02T00:10:41.158Z,26.48
2024-03-02T00:13:09.791Z,25.75
2024-03-02T00:15:49.386Z,26.23
2024-03-02T00:18:40.914Z,25.35
2024-03-02T00:21:11.441Z,26.50
2024-03-02T00:23:39.712Z,27.42
2024-03-02T00:26:07.192Z,26.80
2024-03-02T00:28:38.551Z,25.88
2024-03-02T00:31:14.130Z,28.65
2024-03-02T00:33:49.488Z,27.58
2024-03-02T00:36:28.424Z,28.60
2024-03-02T00:38:56.107Z,28.15
2024-03-02T00:41:25.211Z,29.48
2024-03-02T00:44:09.385Z,28.23
2024-03-02T00:46:44.971Z,28.02
2024-03-02T00:49:24.203Z,25.80
2024-03-02T00:51:53.574Z,26.35
2024-03-02T00:54:27.166Z,24.40
2024-03-02T00:56:56.446Z,24.25
2024-03-02T00:59:24.194Z,23.20
2024-03-02T01:01:51.816Z,23.98
2024-03-02T01:04:18.664Z,22.90
2024-03-02T01:06:45.628Z,25.05
2024-03-02T01:09:13.669Z,20.92
2024-03-02T01:11:40.764Z,22.80
2024-03-02T01:14:07.744Z,25.40
2024-03-02T01:16:34.570Z,22.00
2024-03-02T01:19:01.751Z,23.33
2024-03-02T01:21:28.729Z,21.63
2024-03-02T01:23:55.587Z,21.27
2024-03-02T01:26:22.469Z,25.65
2024-03-02T01:28:49.763Z,22.50
2024-03-02T01:31:16.624Z,19.70
2024-03-02T01:33:43.690Z,20.63
2024-03-02T01:36:10.615Z,22.10
2024-03-02T01:38:37.462Z,20.83
2024-03-02T01:41:04.435Z,18.88
2024-03-02T01:43:31.242Z,20.50
2024-03-02T01:45:58.540Z,21.45
2024-03-02T01:48:25.530Z,23.27
2024-03-02T01:50:52.533Z,20.88
2024-03-02T01:53:20.005Z,22.90
2024-03-02T01:55:46.885Z,22.30
2024-03-02T01:58:13.805Z,22.38
2024-03-02T02:00:41.011Z,23.95
2024-03-02T02:03:07.966Z,21.75
2024-03-02T02:05:36.138Z,20.33
2024-03-02T02:08:03.190Z,24.92
2024-03-02T02:10:30.081Z,21.70
2024-03-02T02:12:57.068Z,21.42
2024-03-02T02:15:27.417Z,22.10
2024-03-02T02:17:58.650Z,23.05
2024-03-02T02:20:26.619Z,25.65
2024-03-02T02:23:01.322Z,19.98
2024-03-02T02:25:29.575Z,20.58
2024-03-02T02:27:58.050Z,18.23
2024-03-02T02:30:28.408Z,22.60
2024-03-02T02:32:55.609Z,20.73
2024-03-02T02:35:23.084Z,19.00
2024-03-02T02:37:51.717Z,21.08
2024-03-02T02:40:20.097Z,18.90
2024-03-02T02:42:47.823Z,20.67
2024-03-02T02:45:16.110Z,20.45
2024-03-02T02:47:44.600Z,20.88
2024-03-02T02:50:13.488Z,20.95
2024-03-02T02:52:42.332Z,19.55
2024-03-02T02:55:14.896Z,19.88
2024-03-02T02:57:44.539Z,20.35
2024-03-02T03:00:17.950Z,18.45
2024-03-02T03:02:48.918Z,19.40
2024-03-02T03:05:16.644Z,21.95
2024-03-02T03:07:45.294Z,19.88
2024-03-02T03:10:12.369Z,21.50
2024-03-02T03:12:39.397Z,22.00
2024-03-02T03:15:08.035Z,21.63
2024-03-02T03:17:36.050Z,20.52
2024-03-02T03:20:05.106Z,21.63
2024-03-02T03:22:32.968Z,19.27
2024-03-02T03:25:00.856Z,21.60
2024-03-02T03:27:28.052Z,21.67
2024-03-02T03:29:55.502Z,19.13
2024-03-02T03:32:23.106Z,20.88
2024-03-02T03:34:50.183Z,21.33
2024-03-02T03:37:17.080Z,21.70
2024-03-02T03:39:44.025Z,23.38
2024-03-02T03:42:10.890Z,23.95
2024-03-02T03:44:37.824Z,21.15
2024-03-02T03:47:04.742Z,19.60
2024-03-02T03:49:31.556Z,21.60
2024-03-02T03:51:58.571Z,23.17
2024-03-02T03:54:25.474Z,25.45
2024-03-02T03:56:52.329Z,24.85
2024-03-02T03:59:19.177Z,22.45
2024-03-02T04:01:46.082Z,26.42
2024-03-02T04:04:12.906Z,26.05
2024-03-02T04:06:39.885Z,21.60
2024-03-02T04:09:06.704Z,21.58
2024-03-02T04:11:33.634Z,21.63
2024-03-02T04:14:00.569Z,21.10
2024-03-02T04:16:27.457Z,20.77
2024-03-02T04:18:54.369Z,20.05
2024-03-02T04:21:21.396Z,19.30
2024-03-02T04:23:48.632Z,22.23
2024-03-02T04:26:20.740Z,21.10
2024-03-02T04:28:47.736Z,22.73
2024-03-02T04:31:16.449Z,24.50
2024-03-02T04:33:43.389Z,19.48
2024-03-02T04:36:11.133Z,20.80
2024-03-02T04:38:39.591Z,21.92
2024-03-02T04:41:07.260Z,22.60
2024-03-02T04:43:34.783Z,20.75
2024-03-02T04:46:02.262Z,21.02
2024-03-02T04:48:29.243Z,20.70
2024-03-02T04:50:56.108Z,19.98
2024-03-02T04:53:22.919Z,21.35
2024-03-02T04:56:08.705Z,20.90
2024-03-02T04:58:35.529Z,21.30
2024-03-02T05:01:02.410Z,19.08
2024-03-02T05:03:29.264Z,22.05
2024-03-02T05:05:57.131Z,23.92
2024-03-02T05:08:24.035Z,22.27
2024-03-02T05:10:50.859Z,22.17
2024-03-02T05:13:18.720Z,22.50
2024-03-02T05:15:45.902Z,23.65
2024-03-02T05:18:12.786Z,23.45
2024-03-02T05:20:39.650Z,21.58
2024-03-02T05:23:06.449Z,21.00
2024-03-02T05:25:33.900Z,23.52
2024-03-02T05:28:00.828Z,20.13
2024-03-02T05:30:27.886Z,22.02
2024-03-02T05:32:54.787Z,21.58
2024-03-02T05:35:21.696Z,19.75
2024-03-02T05:37:48.593Z,20.63
2024-03-02T05:40:15.472Z,20.17
2024-03-02T05:42:42.697Z,21.70
2024-03-02T05:45:09.791Z,22.42
2024-03-02T05:47:36.630Z,22.40
2024-03-02T05:50:04.948Z,22.30
2024-03-02T05:52:31.914Z,20.63
2024-03-02T05:54:58.796Z,26.98
2024-03-02T05:57:44.355Z,21.27
2024-03-02T06:00:12.130Z,21.65
2024-03-02T06:02:42.355Z,20.77
2024-03-02T06:05:10.082Z,23.33
2024-03-02T06:07:37.085Z,22.60
2024-03-02T06:10:04.271Z,24.95
2024-03-02T06:12:33.538Z,22.77
2024-03-02T06:15:00.514Z,23.48
2024-03-02T06:17:27.487Z,29.73
2024-03-02T06:19:54.381Z,24.48
2024-03-02T06:22:22.489Z,25.23
2024-03-02T06:24:49.589Z,24.50
2024-03-02T06:27:16.588Z,26.67
2024-03-02T06:29:43.624Z,24.52
2024-03-02T06:32:10.563Z,24.15
2024-03-02T06:34:37.518Z,29.35
2024-03-02T06:37:04.481Z,26.13
2024-03-02T06:39:32.440Z,25.92
2024-03-02T06:41:59.297Z,25.15
2024-03-02T06:44:26.082Z,26.17
2024-03-02T06:46:53.021Z,23.95
2024-03-02T06:49:19.824Z,23.85
2024-03-02T06:51:46.675Z,28.48
2024-03-02T06:54:13.606Z,26.55
2024-03-02T06:56:40.446Z,29.10
2024-03-02T06:59:07.291Z,27.63
2024-03-02T07:01:34.189Z,31.25
2024-03-02T07:04:01.117Z,31.23
2024-03-02T07:06:28.027Z,29.42
2024-03-02T07:08:54.840Z,33.92
2024-03-02T07:11:21.789Z,32.25
2024-03-02T07:13:48.610Z,30.15
2024-03-02T07:16:33.840Z,30.25
2024-03-02T07:19:02.456Z,29.67
2024-03-02T07:21:29.642Z,30.02
2024-03-02T07:23:56.486Z,25.50
2024-03-02T07:28:53.917Z,32.33
2024-03-02T07:31:21.140Z,34.47
2024-03-02T07:33:48.150Z,31.48
2024-03-02T07:36:15.474Z,31.92
2024-03-02T07:38:43.946Z,28.90
2024-03-02T07:41:12.330Z,37.85
2024-03-02T07:43:39.498Z,39.97
2024-03-02T07:46:07.071Z,39.10
2024-03-02T07:48:34.049Z,34.72
2024-03-02T07:51:01.387Z,33.33
2024-03-02T07:53:28.230Z,32.97
2024-03-02T07:55:55.116Z,35.88
2024-03-02T07:58:22.503Z,40.75
2024-03-02T08:00:51.129Z,38.63
2024-03-02T08:03:19.340Z,42.17
2024-03-02T08:05:47.181Z,35.38
2024-03-02T08:08:13.999Z,35.85
2024-03-02T08:10:40.817Z,34.25
2024-03-02T08:13:07.791Z,27.98
2024-03-02T08:15:34.659Z,31.33
2024-03-02T08:18:01.661Z,28.58
2024-03-02T08:20:28.675Z,32.03
2024-03-02T08:22:56.227Z,28.15
2024-03-02T08:25:23.706Z,29.95
2024-03-02T08:27:50.679Z,26.38
2024-03-02T08:30:19.122Z,26.48
2024-03-02T08:32:48.176Z,24.08
2024-03-02T08:35:15.186Z,27.88
2024-03-02T08:37:44.835Z,31.10
2024-03-02T08:40:15.388Z,23.05
2024-03-02T08:42:43.622Z,28.40
2024-03-02T08:45:10.601Z,27.30
2024-03-02T08:47:37.653Z,29.30
2024-03-02T08:50:06.171Z,70.95
2024-03-02T08:52:33.066Z,38.63
2024-03-02T08:55:00.078Z,33.55
2024-03-02T08:57:27.100Z,31.25
2024-03-02T08:59:54.012Z,27.63
2024-03-02T09:02:21.131Z,26.08
2024-03-02T09:04:48.092Z,27.65
2024-03-02T09:07:15.037Z,23.38
2024-03-02T09:09:42.056Z,27.40
2024-03-02T09:12:09.327Z,29.75
2024-03-02T09:14:38.032Z,25.42
2024-03-02T09:17:05.334Z,30.73
2024-03-02T09:19:32.296Z,25.05
2024-03-02T09:21:59.978Z,24.70
2024-03-02T09:24:27.027Z,24.20
2024-03-02T09:26:53.917Z,21.95
2024-03-02T09:29:21.856Z,25.83
2024-03-02T09:31:48.798Z,25.70
2024-03-02T09:34:16.888Z,23.60
2024-03-02T09:36:44.593Z,27.65
2024-03-02T09:39:11.713Z,30.58
2024-03-02T09:41:39.650Z,22.95
2024-03-02T09:44:07.419Z,23.15
2024-03-02T09:46:34.461Z,28.10
2024-03-02T09:49:01.445Z,25.23
2024-03-02T09:51:28.305Z,24.65
2024-03-02T09:53:58.370Z,24.30
2024-03-02T09:56:30.403Z,21.60
2024-03-02T09:58:57.233Z,19.98
2024-03-02T10:01:24.173Z,22.55
2024-03-02T10:03:52.300Z,19.38
2024-03-02T10:06:24.439Z,23.48
2024-03-02T10:08:51.834Z,21.03
2024-03-02T10:11:38.072Z,23.45
2024-03-02T10:14:13.873Z,20.80
2024-03-02T10:16:43.416Z,20.65
2024-03-02T10:19:25.225Z,19.50
2024-03-02T10:21:54.734Z,24.67
2024-03-02T10:24:23.716Z,23.20
2024-03-02T10:26:51.183Z,21.88
2024-03-02T10:29:18.671Z,21.20
2024-03-02T10:31:47.420Z,22.00
2024-03-02T10:34:14.795Z,20.10
2024-03-02T10:36:44.281Z,19.75
2024-03-02T10:39:11.220Z,19.90
2024-03-02T10:41:39.758Z,19.05
2024-03-02T10:44:10.942Z,20.90
2024-03-02T10:46:39.375Z,21.38
2024-03-02T10:49:08.731Z,20.65
2024-03-02T10:51:37.678Z,24.15
2024-03-02T10:54:06.020Z,20.90
2024-03-02T10:56:41.627Z,22.17
2024-03-02T10:59:36.086Z,24.52
2024-03-02T11:02:06.235Z,20.85
2024-03-02T11:04:35.946Z,20.52
2024-03-02T11:07:10.059Z,22.85
2024-03-02T11:09:48.402Z,19.10
2024-03-02T11:12:30.582Z,21.80
2024-03-02T11:14:57.833Z,20.63
2024-03-02T11:17:26.014Z,23.27
2024-03-02T11:19:53.734Z,19.55
2024-03-02T11:22:23.558Z,21.65
2024-03-02T11:24:52.421Z,18.55
2024-03-02T11:27:47.436Z,16.90
2024-03-02T11:30:33.272Z,17.27
2024-03-02T11:33:09.584Z,18.63
2024-03-02T11:35:50.083Z,19.48
2024-03-02T11:38:18.896Z,20.63
2024-03-02T11:40:46.136Z,17.70
2024-03-02T11:43:13.563Z,16.92
2024-03-02T11:45:45.744Z,19.00
2024-03-02T11:48:16.331Z,19.70
2024-03-02T11:50:51.762Z,17.80
2024-03-02T11:53:20.705Z,17.17
2024-03-02T11:55:48.313Z,18.00
2024-03-02T11:58:25.320Z,18.08
2024-03-02T12:00:53.284Z,18.08
2024-03-02T12:03:27.046Z,20.40
2024-03-02T12:05:55.292Z,16.88
2024-03-02T12:08:22.801Z,16.92
2024-03-02T12:11:04.341Z,14.73
2024-03-02T12:13:32.406Z,14.15
2024-03-02T12:16:00.021Z,16.40
2024-03-02T12:18:27.927Z,15.27
2024-03-02T12:20:58.925Z,14.98
2024-03-02T12:23:26.678Z,14.18
2024-03-02T12:25:54.042Z,16.45
2024-03-02T12:28:21.170Z,14.93
2024-03-02T12:30:49.222Z,12.68
2024-03-02T12:33:16.344Z,14.48
2024-03-02T12:35:43.745Z,12.75
2024-03-02T12:38:12.185Z,12.57
2024-03-02T12:40:39.320Z,13.38
2024-03-02T12:43:07.891Z,13.05
2024-03-02T12:45:36.464Z,12.90
2024-03-02T12:48:05.645Z,12.85
2024-03-02T12:50:34.371Z,12.13
2024-03-02T12:53:01.391Z,11.75
2024-03-02T12:55:30.095Z,13.52
2024-03-02T12:57:58.242Z,11.07
2024-03-02T13:00:25.204Z,11.82
2024-03-02T13:02:53.370Z,11.23
2024-03-02T13:05:21.324Z,10.25
2024-03-02T13:07:50.038Z,10.25
2024-03-02T13:10:19.254Z,9.25
2024-03-02T13:12:46.675Z,9.43
2024-03-02T13:15:16.552Z,11.15
2024-03-02T13:17:47.178Z,12.18
2024-03-02T13:20:15.570Z,10.05
2024-03-02T13:22:42.792Z,10.30
2024-03-02T13:25:11.548Z,9.63
2024-03-02T13:27:38.685Z,13.02
2024-03-02T13:30:09.918Z,10.55
2024-03-02T13:32:36.950Z,11.32
2024-03-02T13:35:04.325Z,11.82
2024-03-02T13:37:31.581Z,9.95
2024-03-02T13:39:58.532Z,12.02
2024-03-02T13:42:26.066Z,12.00
2024-03-02T13:44:54.163Z,8.60
2024-03-02T13:47:22.149Z,12.10
2024-03-02T13:49:50.067Z,9.48
2024-03-02T13:52:19.780Z,9.95
2024-03-02T13:54:48.805Z,10.13
2024-03-02T13:57:16.233Z,13.43
2024-03-02T13:59:44.635Z,12.80
2024-03-02T14:02:13.404Z,12.90
2024-03-02T14:04:41.048Z,9.98
2024-03-02T14:07:08.636Z,9.90
2024-03-02T14:09:36.260Z,12.85
2024-03-02T14:12:04.028Z,10.23
2024-03-02T14:14:30.973Z,12.90
2024-03-02T14:17:01.461Z,11.10
2024-03-02T14:19:28.604Z,12.07
2024-03-02T14:21:55.874Z,11.98
2024-03-02T14:24:26.757Z,11.45
2024-03-02T14:26:58.423Z,12.02
2024-03-02T14:29:30.273Z,11.52
2024-03-02T14:31:57.158Z,11.82
2024-03-02T14:34:24.215Z,11.18
2024-03-02T14:36:51.218Z,13.15
2024-03-02T14:39:20.883Z,11.70
2024-03-02T14:41:47.842Z,12.85
2024-03-02T14:44:14.790Z,11.70
2024-03-02T14:46:42.918Z,12.02
2024-03-02T14:49:11.923Z,10.82
2024-03-02T14:51:39.146Z,10.43
2024-03-02T14:54:06.397Z,12.60
2024-03-02T14:56:33.581Z,11.80
2024-03-02T14:59:00.458Z,15.10
2024-03-02T15:01:27.599Z,12.77
2024-03-02T15:03:54.780Z,12.13
2024-03-02T15:06:21.888Z,11.13
2024-03-02T15:08:49.095Z,10.65
2024-03-02T15:11:16.460Z,9.75
2024-03-02T15:13:43.901Z,10.82
2024-03-02T15:16:10.944Z,12.45
2024-03-02T15:18:37.991Z,12.30
2024-03-02T15:21:05.417Z,14.25
2024-03-02T15:23:32.277Z,13.43
2024-03-02T15:25:59.299Z,14.98
2024-03-02T15:28:26.293Z,12.15
2024-03-02T15:30:55.236Z,13.23
2024-03-02T15:33:31.944Z,13.50
2024-03-02T15:36:02.686Z,12.07
2024-03-02T15:38:34.088Z,14.20
2024-03-02T15:41:03.497Z,13.38
2024-03-02T15:43:32.071Z,11.75
2024-03-02T15:45:59.700Z,13.20
2024-03-02T15:48:27.290Z,13.25
2024-03-02T15:50:54.189Z,13.23
2024-03-02T15:53:21.431Z,13.10
2024-03-02T15:55:48.323Z,14.05
2024-03-02T15:58:15.342Z,12.93
2024-03-02T16:00:42.333Z,11.80
2024-03-02T16:03:09.367Z,12.23
2024-03-02T16:05:36.280Z,15.52
2024-03-02T16:08:03.297Z,12.75
2024-03-02T16:10:30.134Z,14.88
2024-03-02T16:13:00.847Z,14.23
2024-03-02T16:15:29.597Z,14.82
2024-03-02T16:17:56.814Z,16.02
2024-03-02T16:20:24.688Z,14.43
2024-03-02T16:22:51.558Z,14.63
2024-03-02T16:25:18.657Z,18.40
2024-03-02T16:27:45.637Z,13.30
2024-03-02T16:30:12.904Z,14.38
2024-03-02T16:32:39.725Z,17.55
2024-03-02T16:35:07.066Z,17.30
2024-03-02T16:37:33.986Z,17.60
2024-03-02T16:40:00.838Z,15.60
2024-03-02T16:42:27.663Z,15.77
2024-03-02T16:44:56.667Z,19.33
2024-03-02T16:47:24.672Z,18.77
2024-03-02T16:49:51.751Z,16.80
2024-03-02T16:52:19.151Z,15.82
2024-03-02T16:54:50.811Z,17.58
2024-03-02T16:57:18.551Z,16.52
2024-03-02T16:59:45.745Z,19.77
2024-03-02T17:02:13.382Z,19.92
2024-03-02T17:04:40.949Z,28.05
2024-03-02T17:07:08.186Z,25.05
2024-03-02T17:09:35.203Z,45.80
2024-03-02T17:12:02.142Z,29.50
2024-03-02T17:14:29.055Z,43.42
2024-03-02T17:16:55.916Z,49.50
2024-03-02T17:19:22.760Z,49.22
2024-03-02T17:21:49.632Z,78.32
2024-03-02T17:24:16.592Z,51.13
2024-03-02T17:26:43.510Z,81.50
2024-03-02T17:29:10.416Z,59.67
2024-03-02T17:31:37.378Z,54.85
2024-03-02T17:34:04.445Z,129.18
2024-03-02T17:36:31.409Z,138.90
2024-03-02T17:38:58.240Z,80.75
2024-03-02T17:41:25.670Z,53.33
2024-03-02T17:43:52.495Z,32.63
2024-03-02T17:46:19.361Z,31.42
2024-03-02T17:48:46.369Z,25.95
2024-03-02T17:51:13.891Z,28.98
2024-03-02T17:53:40.733Z,26.20
2024-03-02T17:56:12.026Z,34.20
2024-03-02T17:58:39.307Z,29.90
2024-03-02T18:01:06.203Z,25.77
2024-03-02T18:03:33.320Z,28.20
2024-03-02T18:06:00.231Z,23.67
2024-03-02T18:08:27.131Z,25.15
2024-03-02T18:10:54.229Z,24.05
2024-03-02T18:13:21.067Z,32.10
2024-03-02T18:15:51.228Z,30.25
2024-03-02T18:18:18.521Z,25.40
2024-03-02T18:20:46.285Z,42.38
2024-03-02T18:23:14.237Z,39.67
2024-03-02T18:25:47.279Z,30.85
2024-03-02T18:30:43.500Z,52.53
2024-03-02T18:33:10.442Z,103.28
2024-03-02T18:35:37.965Z,81.80
2024-03-02T18:38:05.324Z,49.50
2024-03-02T18:40:32.343Z,37.13
2024-03-02T18:43:00.248Z,28.92
2024-03-02T18:45:27.345Z,24.00
2024-03-02T18:47:55.067Z,24.73
2024-03-02T18:50:22.214Z,24.05
2024-03-02T18:52:50.192Z,25.38
2024-03-02T18:55:17.300Z,28.08
2024-03-02T18:57:44.493Z,25.58
2024-03-02T19:00:14.129Z,26.27
2024-03-02T19:02:42.452Z,28.83
2024-03-02T19:05:10.620Z,29.83
2024-03-02T19:07:38.134Z,25.83
2024-03-02T19:10:08.558Z,40.97
2024-03-02T19:12:36.342Z,31.33
2024-03-02T19:15:05.209Z,30.05
2024-03-02T19:17:32.069Z,28.08
2024-03-02T19:19:58.983Z,25.73
2024-03-02T19:22:27.286Z,25.23
2024-03-02T19:24:54.751Z,26.08
2024-03-02T19:27:21.539Z,22.42
2024-03-02T19:29:48.386Z,25.92
2024-03-02T19:32:21.094Z,26.10
2024-03-02T19:34:48.964Z,25.92
2024-03-02T19:37:15.824Z,29.48
2024-03-02T19:39:43.555Z,31.92
2024-03-02T19:42:10.873Z,29.55
2024-03-02T19:44:37.860Z,25.63
2024-03-02T19:47:04.914Z,27.65
2024-03-02T19:49:32.001Z,27.90
2024-03-02T19:51:59.075Z,29.60
2024-03-02T19:54:25.958Z,25.63
2024-03-02T19:56:55.392Z,28.17
2024-03-02T19:59:23.005Z,25.63
2024-03-02T20:01:50.396Z,30.77
2024-03-02T20:04:18.016Z,27.52
2024-03-02T20:06:45.085Z,27.42
2024-03-02T20:09:12.815Z,31.10
2024-03-02T20:11:40.032Z,29.83
2024-03-02T20:14:07.047Z,30.92
2024-03-02T20:16:34.088Z,29.15
2024-03-02T20:19:01.090Z,30.42
2024-03-02T20:21:28.055Z,32.03
2024-03-02T20:23:55.138Z,30.05
2024-03-02T20:26:22.689Z,30.45
2024-03-02T20:28:53.158Z,34.72
2024-03-02T20:31:21.369Z,31.38
2024-03-02T20:33:48.439Z,32.88
2024-03-02T20:36:17.255Z,31.63
2024-03-02T20:38:44.101Z,33.53
2024-03-02T20:41:21.156Z,36.25
2024-03-02T20:43:48.206Z,31.48
2024-03-02T20:46:15.880Z,31.02
2024-03-02T20:48:43.084Z,28.88
2024-03-02T20:51:10.022Z,31.58
2024-03-02T20:53:36.972Z,35.15
2024-03-02T20:56:04.744Z,32.33
2024-03-02T20:58:31.888Z,32.22
2024-03-02T21:00:59.007Z,31.58
2024-03-02T21:03:25.943Z,32.67
2024-03-02T21:05:52.881Z,30.88
2024-03-02T21:08:19.832Z,34.17
2024-03-02T21:10:49.507Z,32.80
2024-03-02T21:13:17.621Z,31.30
2024-03-02T21:15:44.876Z,36.03
2024-03-02T21:18:11.795Z,31.38
2024-03-02T21:20:38.729Z,34.88
2024-03-02T21:23:05.565Z,35.72
2024-03-02T21:25:36.298Z,40.70
2024-03-02T21:28:04.004Z,39.90
2024-03-02T21:30:31.761Z,36.88
2024-03-02T21:32:59.498Z,30.38
2024-03-02T21:35:28.249Z,34.03
2024-03-02T21:37:55.693Z,30.95
2024-03-02T21:40:22.754Z,33.35
2024-03-02T21:42:51.881Z,32.67
2024-03-02T21:45:19.034Z,33.47
2024-03-02T21:47:47.081Z,34.38
2024-03-02T21:50:15.580Z,33.85
2024-03-02T21:52:42.440Z,30.38
2024-03-02T21:55:10.621Z,31.48
2024-03-02T21:57:41.118Z,31.85
2024-03-02T22:00:10.205Z,30.25
2024-03-02T22:02:37.196Z,28.23
2024-03-02T22:05:06.628Z,34.42
2024-03-02T22:07:34.335Z,32.67
2024-03-02T22:10:01.850Z,31.13
2024-03-02T22:12:28.832Z,31.20
2024-03-02T22:14:55.755Z,27.45
2024-03-02T22:17:23.582Z,32.42
2024-03-02T22:19:51.264Z,30.75
2024-03-02T22:22:18.467Z,30.73
2024-03-02T22:24:45.543Z,34.65
2024-03-02T22:27:12.585Z,35.55
2024-03-02T22:29:41.765Z,33.85
2024-03-02T22:32:09.335Z,33.35
2024-03-02T22:34:36.240Z,33.45
2024-03-02T22:37:04.155Z,36.03
2024-03-02T22:39:30.983Z,37.10
2024-03-02T22:41:57.945Z,39.30
2024-03-02T22:44:25.319Z,37.42
2024-03-02T22:46:52.669Z,32.60
2024-03-02T22:49:19.615Z,35.10
2024-03-02T22:51:46.654Z,33.92
2024-03-02T22:54:13.660Z,37.10
2024-03-02T22:56:40.626Z,33.45
2024-03-02T22:59:07.478Z,31.92
2024-03-02T23:04:02.682Z,31.58
2024-03-02T23:06:29.525Z,35.55
2024-03-02T23:08:56.363Z,31.73
2024-03-02T23:11:23.256Z,34.05
2024-03-02T23:13:50.181Z,31.13
2024-03-02T23:16:17.113Z,34.15
2024-03-02T23:18:44.510Z,37.00
2024-03-02T23:21:11.678Z,36.75
2024-03-02T23:23:39.076Z,36.15
2024-03-02T23:26:07.473Z,34.40
2024-03-02T23:28:34.526Z,40.97
2024-03-02T23:31:01.437Z,35.95
2024-03-02T23:33:28.265Z,35.63
2024-03-02T23:35:55.061Z,36.05
2024-03-02T23:38:21.954Z,36.63
2024-03-02T23:40:48.818Z,35.15
2024-03-02T23:43:15.849Z,35.65
2024-03-02T23:45:42.910Z,33.13
2024-03-02T23:48:11.437Z,32.42
2024-03-02T23:50:38.472Z,33.08
2024-03-02T23:53:05.465Z,30.58
2024-03-02T23:55:43.009Z,30.65
2024-03-02T23:58:18.569Z,34.13
